Time;durP1;ratioP1;P1;durP2;ratioP2;P2;SDS_P1;SDS_P2;PMS_P1;PMS_P2;Temp;Humidity;BMP_temperature;BMP_pressure;BME280_temperature;BME280_humidity;BME280_pressure;Samples;Min_cycle;Max_cycle;Signal;HPM_P1;HPM_P2
2023/12/14 11:46:19;;;;;;;3.57;1.03;;;9.90;99.90;;;;;;3531431;23;20261;-74
2023/12/14 11:48:48;;;;;;;4.33;1.43;;;10.10;99.90;;;;;;4896956;29;20581;-72
2023/12/14 11:51:16;;;;;;;2.70;0.97;;;10.00;99.90;;;;;;4897620;29;20217;-73
2023/12/14 11:53:45;;;;;;;5.37;1.10;;;9.80;99.90;;;;;;4897637;29;20230;-74
2023/12/14 11:56:12;;;;;;;4.67;1.93;;;9.80;99.90;;;;;;4897300;29;20273;-74
2023/12/14 11:58:42;;;;;;;4.17;1.20;;;9.90;99.90;;;;;;4897469;29;20215;-73
2023/12/14 12:01:13;;;;;;;2.67;0.97;;;9.70;99.90;;;;;;4897280;29;20233;-73
2023/12/14 12:03:43;;;;;;;2.07;1.10;;;9.60;99.90;;;;;;4897499;29;20325;-74
2023/12/14 12:06:20;;;;;;;3.53;1.37;;;9.70;99.90;;;;;;4897522;29;20262;-74
2023/12/14 12:08:47;;;;;;;5.03;3.10;;;9.60;99.90;;;;;;4897346;29;20317;-73
2023/12/14 12:11:17;;;;;;;2.33;1.50;;;9.60;99.90;;;;;;4897208;29;20246;-74
2023/12/14 12:13:44;;;;;;;2.30;0.93;;;9.80;99.90;;;;;;4897033;29;20247;-73
2023/12/14 12:16:11;;;;;;;2.30;1.30;;;9.80;99.90;;;;;;4897389;29;20244;-74
2023/12/14 12:18:39;;;;;;;3.23;1.57;;;9.90;99.90;;;;;;4897606;29;20229;-74
2023/12/14 12:21:08;;;;;;;4.50;1.40;;;9.90;99.90;;;;;;4900739;29;20343;-74
2023/12/14 12:23:36;;;;;;;5.33;1.90;;;9.60;99.90;;;;;;4900496;29;20270;-74
2023/12/14 12:26:03;;;;;;;3.73;1.60;;;9.60;99.90;;;;;;4900667;29;20214;-75
2023/12/14 12:28:31;;;;;;;3.90;1.70;;;9.70;99.90;;;;;;4900757;29;20262;-74
2023/12/14 12:30:59;;;;;;;3.80;2.13;;;9.70;99.90;;;;;;4900589;29;20206;-74
2023/12/14 12:33:26;;;;;;;2.83;1.37;;;9.60;99.90;;;;;;4900548;29;20245;-73
2023/12/14 12:35:54;;;;;;;3.33;1.50;;;9.70;99.90;;;;;;4900328;29;20321;-73
2023/12/14 12:38:22;;;;;;;3.77;2.00;;;9.70;99.90;;;;;;4900374;29;20297;-74
2023/12/14 12:40:49;;;;;;;3.57;1.77;;;9.60;99.90;;;;;;4900439;29;20214;-74
2023/12/14 12:43:17;;;;;;;2.93;1.83;;;9.40;99.90;;;;;;4899925;29;20234;-74
2023/12/14 12:45:44;;;;;;;3.57;1.70;;;9.50;99.90;;;;;;4900327;29;20217;-74
2023/12/14 12:48:11;;;;;;;6.37;2.37;;;9.50;99.90;;;;;;4899909;29;20219;-74
2023/12/14 12:50:38;;;;;;;5.23;2.20;;;9.50;99.90;;;;;;4901826;29;20218;-73
2023/12/14 12:53:05;;;;;;;3.97;1.70;;;9.50;99.90;;;;;;4905135;29;20231;-73
2023/12/14 12:55:33;;;;;;;8.83;2.60;;;9.30;99.90;;;;;;4905658;29;20235;-72
2023/12/14 12:58:04;;;;;;;6.43;2.47;;;9.30;99.90;;;;;;4907487;29;20214;-72
2023/12/14 13:00:31;;;;;;;4.33;1.90;;;9.40;99.90;;;;;;4905485;29;20211;-73
2023/12/14 13:03:01;;;;;;;4.93;2.20;;;9.60;99.90;;;;;;4904411;29;20238;-73
2023/12/14 13:05:27;;;;;;;5.00;2.10;;;9.60;99.90;;;;;;4899829;29;20214;-73
2023/12/14 13:07:56;;;;;;;8.00;2.23;;;9.60;99.90;;;;;;4900066;29;20241;-73
2023/12/14 13:10:26;;;;;;;5.10;1.80;;;9.70;99.90;;;;;;4899909;29;20242;-73
2023/12/14 13:12:56;;;;;;;4.67;2.00;;;9.50;99.90;;;;;;4899727;29;20218;-73
2023/12/14 13:15:24;;;;;;;4.80;2.33;;;9.40;99.90;;;;;;4899735;29;20233;-73
2023/12/14 13:17:51;;;;;;;6.07;2.20;;;9.40;99.90;;;;;;4899735;29;20218;-73
2023/12/14 13:20:19;;;;;;;4.30;2.23;;;9.40;99.90;;;;;;4899810;29;20217;-73
2023/12/14 13:22:46;;;;;;;6.73;2.23;;;9.30;99.90;;;;;;4899506;29;20217;-73
2023/12/14 13:25:13;;;;;;;4.87;2.13;;;9.20;99.90;;;;;;4899632;29;20246;-73
2023/12/14 13:27:42;;;;;;;7.67;2.50;;;9.30;99.90;;;;;;4899326;29;20547;-72
2023/12/14 13:30:16;;;;;;;6.70;2.40;;;9.20;99.90;;;;;;4899063;29;20274;-73
2023/12/14 13:32:43;;;;;;;5.53;1.70;;;9.10;99.90;;;;;;4899197;29;20695;-73
2023/12/14 13:35:10;;;;;;;6.40;2.13;;;9.00;99.90;;;;;;4899344;29;20210;-72
2023/12/14 13:37:37;;;;;;;4.93;2.83;;;8.90;99.90;;;;;;4899539;29;20582;-72
2023/12/14 13:40:05;;;;;;;3.30;1.83;;;8.90;99.90;;;;;;4899406;29;20214;-72
2023/12/14 13:42:32;;;;;;;3.97;1.67;;;8.90;99.90;;;;;;4899597;29;20217;-73
2023/12/14 13:44:59;;;;;;;4.43;2.07;;;9.00;99.90;;;;;;4899403;29;20302;-72
2023/12/14 13:47:28;;;;;;;4.43;1.60;;;9.20;99.90;;;;;;4899031;29;20309;-72
2023/12/14 13:49:54;;;;;;;3.10;1.57;;;9.20;99.90;;;;;;4898985;29;20210;-71
2023/12/14 13:52:21;;;;;;;5.97;2.00;;;9.10;99.90;;;;;;4899013;29;20210;-72
2023/12/14 13:54:49;;;;;;;4.50;1.67;;;9.10;99.90;;;;;;4898967;29;20238;-72
2023/12/14 13:57:16;;;;;;;2.83;1.50;;;9.00;99.90;;;;;;4898979;29;20242;-72
2023/12/14 13:59:43;;;;;;;5.43;2.10;;;9.00;99.90;;;;;;4898984;29;20218;-72
2023/12/14 14:02:11;;;;;;;4.40;1.73;;;8.90;99.90;;;;;;4898648;29;20210;-73
2023/12/14 14:04:39;;;;;;;5.20;1.77;;;8.90;99.90;;;;;;4898968;29;20234;-73
2023/12/14 14:07:06;;;;;;;3.70;1.60;;;8.90;99.90;;;;;;4898827;29;20266;-72
2023/12/14 14:09:33;;;;;;;3.13;1.60;;;9.10;99.90;;;;;;4898680;29;20210;-73
2023/12/14 14:12:00;;;;;;;3.20;1.73;;;9.10;99.90;;;;;;4895055;29;20210;-74
2023/12/14 14:14:27;;;;;;;4.43;2.30;;;9.10;99.90;;;;;;4896434;29;20226;-74
2023/12/14 14:16:54;;;;;;;4.60;1.80;;;9.20;99.90;;;;;;4897995;29;20237;-73
2023/12/14 14:19:21;;;;;;;4.27;2.13;;;9.20;99.90;;;;;;4911051;29;20206;-74
2023/12/14 14:21:50;;;;;;;5.97;2.00;;;9.30;99.90;;;;;;4914450;29;20209;-73
2023/12/14 14:24:17;;;;;;;3.40;1.73;;;9.30;99.90;;;;;;4898215;29;20254;-73
2023/12/14 14:26:44;;;;;;;3.97;1.63;;;9.30;99.90;;;;;;4897926;29;20749;-73
2023/12/14 14:29:11;;;;;;;4.23;1.90;;;9.30;99.90;;;;;;4898172;29;20241;-74
2023/12/14 14:31:38;;;;;;;3.73;1.67;;;9.30;99.90;;;;;;4910410;29;20732;-74
2023/12/14 14:34:06;;;;;;;3.37;1.63;;;9.20;99.90;;;;;;4898129;29;20235;-73
2023/12/14 14:36:32;;;;;;;4.63;2.10;;;9.10;99.90;;;;;;4897961;29;20320;-73
2023/12/14 14:39:01;;;;;;;8.10;1.97;;;9.10;99.90;;;;;;4897975;29;20242;-73
2023/12/14 14:41:28;;;;;;;4.30;1.70;;;9.20;99.90;;;;;;4897247;29;20214;-73
2023/12/14 14:43:55;;;;;;;6.03;1.93;;;9.20;99.90;;;;;;4897347;29;20241;-71
2023/12/14 14:46:22;;;;;;;2.87;1.50;;;9.30;99.90;;;;;;4897703;29;20223;-76
2023/12/14 14:48:49;;;;;;;3.93;1.77;;;9.30;99.90;;;;;;4897690;29;20554;-72
2023/12/14 14:51:16;;;;;;;3.07;1.50;;;9.20;99.90;;;;;;4897841;29;20203;-73
2023/12/14 14:53:43;;;;;;;2.77;1.40;;;9.20;99.90;;;;;;4897681;29;20261;-75
2023/12/14 14:56:12;;;;;;;2.50;1.40;;;9.30;99.90;;;;;;4897623;29;20289;-77
2023/12/14 14:58:39;;;;;;;2.13;1.27;;;9.40;99.90;;;;;;4897640;29;20221;-77
2023/12/14 15:01:06;;;;;;;2.10;1.27;;;9.20;99.90;;;;;;4893237;29;20207;-74
2023/12/14 15:03:33;;;;;;;4.60;1.33;;;9.10;99.90;;;;;;4908921;29;20230;-72
2023/12/14 15:06:00;;;;;;;4.33;1.23;;;9.20;99.90;;;;;;4908049;29;20729;-74
2023/12/14 15:08:27;;;;;;;4.47;1.40;;;9.20;99.90;;;;;;4897512;29;20666;-72
2023/12/14 15:10:55;;;;;;;4.33;1.47;;;9.40;99.90;;;;;;4895482;29;20662;-71
2023/12/14 15:13:24;;;;;;;4.67;1.87;;;9.20;99.90;;;;;;4895727;29;20234;-72
2023/12/14 15:15:51;;;;;;;3.80;1.37;;;9.30;99.90;;;;;;4895484;29;20214;-71
2023/12/14 15:18:17;;;;;;;2.63;1.23;;;9.30;99.90;;;;;;4895641;29;20211;-72
2023/12/14 15:20:45;;;;;;;3.50;1.27;;;9.10;99.90;;;;;;4894527;29;20210;-75
2023/12/14 15:23:12;;;;;;;5.23;1.80;;;9.00;99.90;;;;;;4895206;29;20712;-70
2023/12/14 15:25:39;;;;;;;3.80;1.67;;;9.00;99.90;;;;;;4896230;29;20202;-73
2023/12/14 15:28:07;;;;;;;10.47;1.70;;;9.00;99.90;;;;;;4895880;29;20229;-71
2023/12/14 15:30:35;;;;;;;1.97;1.07;;;9.10;99.90;;;;;;4895108;29;20217;-70
2023/12/14 15:33:02;;;;;;;5.43;1.40;;;9.20;99.90;;;;;;4895271;29;20226;-71
2023/12/14 15:35:29;;;;;;;1.77;1.10;;;9.20;99.90;;;;;;4895597;29;20764;-74
2023/12/14 15:37:56;;;;;;;3.83;1.80;;;9.20;99.90;;;;;;4895347;29;20238;-76
2023/12/14 15:40:23;;;;;;;4.33;1.57;;;9.00;99.90;;;;;;4897016;29;20215;-74
2023/12/14 15:42:51;;;;;;;7.80;1.20;;;8.90;99.90;;;;;;4896713;29;20202;-72
2023/12/14 15:45:19;;;;;;;3.30;0.97;;;8.90;99.90;;;;;;4896749;29;20237;-71
2023/12/14 15:47:48;;;;;;;5.53;1.80;;;8.80;99.90;;;;;;4896886;29;20222;-73
2023/12/14 15:50:15;;;;;;;3.27;1.20;;;8.70;99.90;;;;;;4896878;29;20234;-71
2023/12/14 15:52:42;;;;;;;3.47;1.30;;;8.80;99.90;;;;;;4897568;29;20210;-71
2023/12/14 15:55:09;;;;;;;3.43;1.13;;;8.70;99.90;;;;;;4900681;29;20210;-71
2023/12/14 15:57:37;;;;;;;2.00;1.10;;;8.80;99.90;;;;;;4900757;29;20242;-72
2023/12/14 16:00:05;;;;;;;3.17;1.20;;;8.80;99.90;;;;;;4900143;29;20600;-72
2023/12/14 16:02:32;;;;;;;2.40;1.20;;;8.80;99.90;;;;;;4900425;29;20210;-75
2023/12/14 16:05:00;;;;;;;3.70;0.93;;;8.70;99.90;;;;;;4900406;29;20226;-71
2023/12/14 16:07:27;;;;;;;2.23;0.77;;;8.70;99.90;;;;;;4908303;29;20209;-75
2023/12/14 16:09:55;;;;;;;2.80;1.50;;;8.70;99.90;;;;;;4919413;29;20217;-72
2023/12/14 16:12:22;;;;;;;5.13;1.27;;;8.60;99.90;;;;;;4919428;29;20387;-71
2023/12/14 16:14:49;;;;;;;2.60;0.70;;;8.60;99.90;;;;;;4919407;29;20375;-74
2023/12/14 16:17:17;;;;;;;3.27;1.03;;;8.70;99.90;;;;;;4919336;29;20297;-75
2023/12/14 16:19:44;;;;;;;2.57;0.90;;;8.60;99.90;;;;;;4919202;29;20308;-76
2023/12/14 16:22:12;;;;;;;2.40;0.83;;;8.70;99.90;;;;;;4919058;29;20728;-76
2023/12/14 16:24:39;;;;;;;1.30;0.73;;;8.70;99.90;;;;;;4911524;29;20226;-75
2023/12/14 16:27:06;;;;;;;1.60;0.73;;;8.80;99.90;;;;;;4899798;29;20270;-76
2023/12/14 16:29:36;;;;;;;1.67;0.90;;;8.80;99.90;;;;;;4900560;29;20209;-75
2023/12/14 16:32:04;;;;;;;3.03;0.73;;;8.90;99.90;;;;;;4913655;29;20683;-76
2023/12/14 16:34:31;;;;;;;2.07;0.80;;;8.80;99.90;;;;;;4915846;29;20229;-74
2023/12/14 16:36:58;;;;;;;3.70;0.90;;;8.70;99.90;;;;;;4900361;29;20281;-76
2023/12/14 16:39:27;;;;;;;3.17;0.67;;;8.70;99.90;;;;;;4900169;29;20210;-76
2023/12/14 16:41:54;;;;;;;1.90;0.60;;;8.60;99.90;;;;;;4900178;29;20562;-76
2023/12/14 16:44:23;;;;;;;1.87;0.70;;;8.50;99.90;;;;;;4912967;29;20236;-73
2023/12/14 16:46:51;;;;;;;1.67;0.60;;;8.50;99.90;;;;;;4899778;29;20290;-74
2023/12/14 16:49:18;;;;;;;4.20;0.50;;;8.50;99.90;;;;;;4899926;29;20662;-76
2023/12/14 16:51:45;;;;;;;1.70;0.70;;;8.50;99.90;;;;;;4903403;29;20729;-76
2023/12/14 16:54:13;;;;;;;1.00;0.50;;;8.60;99.90;;;;;;4903069;29;20721;-75
2023/12/14 16:56:42;;;;;;;2.83;0.87;;;8.50;99.90;;;;;;4901816;29;20206;-74
2023/12/14 16:59:10;;;;;;;1.73;0.60;;;8.50;99.90;;;;;;4899638;29;20670;-73
2023/12/14 17:01:38;;;;;;;1.60;0.70;;;8.50;99.90;;;;;;4899586;29;20216;-74
2023/12/14 17:04:05;;;;;;;1.60;0.40;;;8.50;99.90;;;;;;4898992;29;20245;-74
2023/12/14 17:06:32;;;;;;;3.07;1.10;;;8.50;99.90;;;;;;4899063;29;20210;-75
2023/12/14 17:08:59;;;;;;;2.70;0.63;;;8.50;99.90;;;;;;4899567;29;20290;-74
2023/12/14 17:11:26;;;;;;;1.60;0.90;;;8.40;99.90;;;;;;4898970;29;20207;-72
2023/12/14 17:13:55;;;;;;;0.90;0.53;;;8.30;99.90;;;;;;4898882;29;20238;-73
2023/12/14 17:16:22;;;;;;;1.77;0.67;;;8.40;99.90;;;;;;4899123;29;20570;-72
2023/12/14 17:18:49;;;;;;;0.97;0.50;;;8.40;99.90;;;;;;4899310;29;20246;-72
2023/12/14 17:21:20;;;;;;;1.53;0.67;;;8.40;99.90;;;;;;4902505;29;20214;-72
2023/12/14 17:23:48;;;;;;;0.87;0.60;;;8.40;99.90;;;;;;4899180;29;20230;-72
2023/12/14 17:26:15;;;;;;;3.10;0.67;;;8.40;99.90;;;;;;4898594;29;20543;-72
2023/12/14 17:28:45;;;;;;;2.03;0.63;;;8.30;99.90;;;;;;4899248;29;20551;-74
2023/12/14 17:31:14;;;;;;;3.30;1.00;;;8.30;99.90;;;;;;4899159;29;20210;-73
2023/12/14 17:33:42;;;;;;;3.17;0.73;;;8.20;99.90;;;;;;4899004;29;20277;-74
2023/12/14 17:36:09;;;;;;;4.50;1.27;;;8.00;99.90;;;;;;4898925;29;20569;-72
2023/12/14 17:38:36;;;;;;;2.27;1.07;;;7.90;99.90;;;;;;4898965;29;20665;-72
2023/12/14 17:41:05;;;;;;;5.23;0.90;;;7.90;99.90;;;;;;4898658;29;20641;-72
2023/12/14 17:43:34;;;;;;;1.87;0.90;;;7.90;99.90;;;;;;4898891;29;20234;-73
2023/12/14 17:46:02;;;;;;;4.53;1.20;;;8.00;99.90;;;;;;4898724;29;20229;-73
2023/12/14 17:48:30;;;;;;;4.37;1.00;;;8.00;99.90;;;;;;4898454;29;20210;-73
2023/12/14 17:50:57;;;;;;;2.57;1.10;;;8.00;99.90;;;;;;4898655;29;20297;-73
2023/12/14 17:53:25;;;;;;;2.87;0.90;;;8.00;99.90;;;;;;4899079;29;20230;-73
2023/12/14 17:55:52;;;;;;;2.67;1.00;;;8.10;99.90;;;;;;4898716;29;20221;-74
2023/12/14 17:58:19;;;;;;;2.23;1.10;;;8.10;99.90;;;;;;4898526;29;20241;-73
2023/12/14 18:00:46;;;;;;;7.23;1.53;;;8.10;99.90;;;;;;4898387;29;20262;-73
2023/12/14 18:03:13;;;;;;;2.83;1.80;;;8.10;99.90;;;;;;4898068;29;20234;-72
2023/12/14 18:05:41;;;;;;;4.60;1.97;;;8.10;99.90;;;;;;4898175;29;20610;-73
2023/12/14 18:08:09;;;;;;;4.60;1.23;;;8.20;99.90;;;;;;4898459;29;20210;-73
2023/12/14 18:10:38;;;;;;;3.90;1.67;;;8.10;99.90;;;;;;4898213;29;20293;-74
2023/12/14 18:13:05;;;;;;;4.50;1.70;;;8.10;99.90;;;;;;4894430;29;20235;-73
2023/12/14 18:15:32;;;;;;;3.57;1.63;;;8.00;99.90;;;;;;4897872;29;20209;-73
2023/12/14 18:17:59;;;;;;;5.07;1.50;;;8.00;99.90;;;;;;4905648;29;20296;-73
2023/12/14 18:20:26;;;;;;;3.30;1.47;;;7.90;99.90;;;;;;4912011;29;20257;-72
2023/12/14 18:22:55;;;;;;;3.27;1.27;;;7.90;99.90;;;;;;4897806;29;20669;-73
2023/12/14 18:25:25;;;;;;;4.00;1.70;;;7.90;99.90;;;;;;4891889;29;20309;-73
2023/12/14 18:27:54;;;;;;;3.90;1.43;;;7.80;99.90;;;;;;4883954;29;20219;-74
2023/12/14 18:30:23;;;;;;;4.50;1.37;;;7.80;99.90;;;;;;4899416;29;20318;-74
2023/12/14 18:32:51;;;;;;;5.17;1.60;;;8.00;99.90;;;;;;4896505;29;20210;-74
2023/12/14 18:35:18;;;;;;;4.53;1.80;;;8.10;99.90;;;;;;4899810;29;20226;-73
2023/12/14 18:37:45;;;;;;;4.97;1.60;;;8.10;99.90;;;;;;4884962;29;20243;-73
2023/12/14 18:40:16;;;;;;;3.57;1.53;;;8.10;99.90;;;;;;4884833;29;20214;-73
2023/12/14 18:42:43;;;;;;;3.70;1.90;;;8.10;99.90;;;;;;4897100;29;20225;-73
2023/12/14 18:45:10;;;;;;;3.00;1.30;;;8.00;99.90;;;;;;4896960;29;20242;-73
2023/12/14 18:47:37;;;;;;;3.87;1.57;;;8.10;99.90;;;;;;4897077;29;20282;-72
2023/12/14 18:50:06;;;;;;;7.13;1.50;;;8.00;99.90;;;;;;4897372;29;20214;-74
2023/12/14 18:52:33;;;;;;;3.07;1.60;;;7.80;99.90;;;;;;4897384;29;20213;-72
2023/12/14 18:55:00;;;;;;;2.13;1.20;;;7.70;99.90;;;;;;4897500;29;20226;-72
2023/12/14 18:57:28;;;;;;;4.37;1.70;;;7.90;99.90;;;;;;4896860;29;20709;-73
2023/12/14 18:59:55;;;;;;;3.40;1.63;;;7.90;99.90;;;;;;4897077;29;20551;-73
2023/12/14 19:02:25;;;;;;;3.77;1.20;;;7.90;99.90;;;;;;4897157;29;20214;-74
2023/12/14 19:04:52;;;;;;;3.40;1.53;;;7.90;99.90;;;;;;4896769;29;20746;-73
2023/12/14 19:07:20;;;;;;;6.07;1.50;;;8.00;99.90;;;;;;4890590;29;20658;-73
2023/12/14 19:09:47;;;;;;;3.93;1.47;;;8.00;99.90;;;;;;4889985;29;20210;-72
2023/12/14 19:12:14;;;;;;;5.30;1.40;;;7.90;99.90;;;;;;4892068;29;20326;-73
2023/12/14 19:14:42;;;;;;;9.00;2.17;;;8.00;99.90;;;;;;4897748;29;20286;-72
2023/12/14 19:17:11;;;;;;;5.93;1.70;;;8.10;99.90;;;;;;4896485;29;20595;-72
2023/12/14 19:19:39;;;;;;;5.70;1.93;;;8.10;99.90;;;;;;4902741;29;20591;-72
2023/12/14 19:22:06;;;;;;;4.90;1.70;;;8.10;99.90;;;;;;4897051;29;20222;-72
2023/12/14 19:24:33;;;;;;;3.57;1.50;;;8.10;99.90;;;;;;4895807;29;20226;-73
2023/12/14 19:27:00;;;;;;;3.47;1.67;;;8.20;99.90;;;;;;4896898;29;20569;-73
2023/12/14 19:29:27;;;;;;;3.03;1.63;;;8.40;99.90;;;;;;4901002;29;20218;-73
2023/12/14 19:31:56;;;;;;;6.07;1.70;;;8.40;99.90;;;;;;4906319;29;20392;-72
2023/12/14 19:34:23;;;;;;;5.53;1.90;;;8.20;99.90;;;;;;4900964;29;20233;-72
2023/12/14 19:36:50;;;;;;;4.70;1.50;;;8.20;99.90;;;;;;4900639;29;20214;-72
2023/12/14 19:39:19;;;;;;;3.57;1.70;;;8.30;99.90;;;;;;4900853;29;20241;-72
2023/12/14 19:41:47;;;;;;;3.33;1.63;;;8.20;99.90;;;;;;4898105;29;21978;-72
2023/12/14 19:44:14;;;;;;;6.17;1.60;;;8.30;99.90;;;;;;4900487;29;20713;-72
2023/12/14 19:46:41;;;;;;;3.40;1.70;;;8.30;99.90;;;;;;4900519;29;20722;-72
2023/12/14 19:49:10;;;;;;;4.27;2.00;;;8.30;99.90;;;;;;4900710;29;20210;-72
2023/12/14 19:51:38;;;;;;;4.63;1.77;;;8.40;99.90;;;;;;4900394;29;20206;-72
2023/12/14 19:54:06;;;;;;;6.50;1.80;;;8.40;99.90;;;;;;4900210;29;20321;-72
2023/12/14 19:56:33;;;;;;;5.73;2.23;;;8.40;99.90;;;;;;4898960;29;20213;-72
2023/12/14 19:59:00;;;;;;;6.93;1.80;;;8.40;99.90;;;;;;4900031;29;21216;-72
2023/12/14 20:01:31;;;;;;;2.77;1.67;;;8.30;99.90;;;;;;4899968;29;20211;-71
2023/12/14 20:03:59;;;;;;;2.60;1.50;;;8.40;99.90;;;;;;4899020;29;20223;-71
2023/12/14 20:06:27;;;;;;;4.87;1.90;;;8.40;99.90;;;;;;4897119;29;20210;-72
2023/12/14 20:08:54;;;;;;;4.23;1.40;;;8.40;99.90;;;;;;4903220;29;20210;-73
2023/12/14 20:11:21;;;;;;;2.73;1.00;;;8.30;99.90;;;;;;4900034;29;20210;-72
2023/12/14 20:13:48;;;;;;;8.13;1.37;;;8.20;99.90;;;;;;4894574;29;20229;-72
2023/12/14 20:16:15;;;;;;;3.33;1.70;;;8.20;99.90;;;;;;4900494;29;20611;-72
2023/12/14 20:18:42;;;;;;;4.60;1.60;;;8.20;99.90;;;;;;4900507;29;20238;-73
2023/12/14 20:21:09;;;;;;;4.53;1.60;;;8.20;99.90;;;;;;4899659;29;20289;-72
2023/12/14 20:23:39;;;;;;;2.77;1.27;;;8.10;99.90;;;;;;4899970;29;20239;-73
2023/12/14 20:26:07;;;;;;;4.33;1.30;;;8.10;99.90;;;;;;4900138;29;20210;-73
2023/12/14 20:28:34;;;;;;;3.80;1.70;;;8.20;99.90;;;;;;4899806;29;20266;-72
2023/12/14 20:31:01;;;;;;;2.57;1.00;;;8.20;99.90;;;;;;4902740;29;20258;-73
2023/12/14 20:33:29;;;;;;;3.20;1.30;;;8.10;99.90;;;;;;4899422;29;20234;-72
2023/12/14 20:35:55;;;;;;;2.47;1.10;;;8.10;99.90;;;;;;4898243;29;20669;-72
2023/12/14 20:38:22;;;;;;;3.53;1.10;;;8.20;99.90;;;;;;4899435;29;20230;-72
2023/12/14 20:40:51;;;;;;;7.33;1.60;;;8.20;99.90;;;;;;4898766;29;20214;-73
2023/12/14 20:43:18;;;;;;;4.73;1.77;;;8.10;99.90;;;;;;4899200;29;20266;-72
2023/12/14 20:45:45;;;;;;;1.93;1.03;;;8.00;99.90;;;;;;4900503;29;20266;-73
2023/12/14 20:48:13;;;;;;;2.70;1.30;;;8.00;99.90;;;;;;4898995;29;20210;-72
2023/12/14 20:50:40;;;;;;;8.83;1.43;;;8.00;99.90;;;;;;4902253;29;20214;-73
2023/12/14 20:53:07;;;;;;;2.73;1.37;;;7.90;99.90;;;;;;4907052;29;20226;-74
2023/12/14 20:55:34;;;;;;;4.10;1.30;;;8.00;99.90;;;;;;4906337;29;20210;-73
2023/12/14 20:58:04;;;;;;;3.10;1.50;;;7.90;99.90;;;;;;4900110;29;20230;-72
2023/12/14 21:00:31;;;;;;;3.37;1.40;;;7.80;99.90;;;;;;4899113;29;20552;-73
2023/12/14 21:02:58;;;;;;;4.73;1.67;;;7.80;99.90;;;;;;4895944;29;20231;-72
2023/12/14 21:05:25;;;;;;;6.27;1.60;;;7.70;99.90;;;;;;4899012;29;20573;-71
2023/12/14 21:07:52;;;;;;;3.97;1.17;;;7.60;99.90;;;;;;4899331;29;20301;-72
2023/12/14 21:10:19;;;;;;;4.17;1.53;;;7.50;99.90;;;;;;4898767;29;20202;-72
2023/12/14 21:12:46;;;;;;;4.03;1.90;;;7.40;99.90;;;;;;4895647;29;20658;-73
2023/12/14 21:15:14;;;;;;;3.63;1.30;;;7.40;99.90;;;;;;4890335;29;20206;-72
2023/12/14 21:17:41;;;;;;;3.17;1.73;;;7.40;99.90;;;;;;4898727;29;20207;-73
2023/12/14 21:20:09;;;;;;;4.53;2.13;;;7.40;99.90;;;;;;4907408;29;20241;-73
2023/12/14 21:22:36;;;;;;;3.77;1.60;;;7.40;99.90;;;;;;4899265;29;20669;-72
2023/12/14 21:25:04;;;;;;;6.07;2.23;;;7.40;99.90;;;;;;4899044;29;20214;-73
2023/12/14 21:27:46;;;;;;;4.13;2.27;;;7.50;99.90;;;;;;4898964;29;20210;-74
2023/12/14 21:30:16;;;;;;;6.03;2.17;;;7.40;99.90;;;;;;4898891;29;20221;-73
2023/12/14 21:32:43;;;;;;;7.10;2.17;;;7.40;99.90;;;;;;4899776;29;20615;-73
2023/12/14 21:35:11;;;;;;;3.00;1.70;;;7.30;99.90;;;;;;4897600;29;20206;-73
2023/12/14 21:37:39;;;;;;;3.47;1.87;;;7.30;99.90;;;;;;4898433;29;20293;-72
2023/12/14 21:40:08;;;;;;;5.23;2.20;;;7.30;99.90;;;;;;4897900;29;20765;-73
2023/12/14 21:42:35;;;;;;;7.53;2.47;;;7.30;99.90;;;;;;4898288;29;20221;-73
2023/12/14 21:45:03;;;;;;;4.50;2.23;;;7.30;99.90;;;;;;4897335;29;20242;-73
2023/12/14 21:47:31;;;;;;;5.60;2.17;;;7.40;99.90;;;;;;4898080;29;20211;-72
2023/12/14 21:49:58;;;;;;;2.63;1.47;;;7.30;99.90;;;;;;4898113;29;20777;-72
2023/12/14 21:52:25;;;;;;;3.43;2.10;;;7.30;99.90;;;;;;4897887;29;20220;-73
2023/12/14 21:54:52;;;;;;;2.67;1.23;;;7.40;99.90;;;;;;4896603;29;20317;-73
2023/12/14 21:57:19;;;;;;;2.10;1.50;;;7.40;99.90;;;;;;4897378;29;20278;-72
2023/12/14 21:59:46;;;;;;;3.23;1.80;;;7.40;99.90;;;;;;4898242;29;20242;-72
2023/12/14 22:02:13;;;;;;;2.43;1.63;;;7.40;99.90;;;;;;4897676;29;20241;-72
2023/12/14 22:04:42;;;;;;;3.90;1.63;;;7.30;99.90;;;;;;4897886;29;20282;-73
2023/12/14 22:07:09;;;;;;;4.00;1.63;;;7.30;99.90;;;;;;4897876;29;20211;-74
2023/12/14 22:09:36;;;;;;;4.87;1.77;;;7.40;99.90;;;;;;4906770;29;20209;-74
2023/12/14 22:12:03;;;;;;;4.10;1.60;;;7.40;99.90;;;;;;4897895;29;20221;-74
2023/12/14 22:14:30;;;;;;;5.77;1.80;;;7.50;99.90;;;;;;4891372;29;20225;-73
2023/12/14 22:16:57;;;;;;;2.53;1.63;;;7.40;99.90;;;;;;4897977;29;20245;-73
2023/12/14 22:19:25;;;;;;;7.93;2.30;;;7.40;99.90;;;;;;4897193;29;20321;-73
2023/12/14 22:21:54;;;;;;;2.57;2.00;;;7.40;99.90;;;;;;4882603;29;20217;-73
2023/12/14 22:24:20;;;;;;;4.43;1.90;;;7.40;99.90;;;;;;4897837;29;20230;-72
